ADDS METAR Data INFO
IDs: Format: Raw Decoded Include TAF

Data at: 2336 UTC 25 Feb 2018

KDFI 252253Z AUTO 25010G17KT 10SM FEW036 05/M01 A3002 RMK AO2 SLP171 T00501011
KDFI 252153Z AUTO 25011G23KT 10SM SCT037 06/M01 A3001 RMK AO2 SLP166 T00561011
KDFI 252053Z AUTO 25015G21KT 220V280 10SM FEW033 06/M01 A2998 RMK AO2 SLP156 T00611011 53005
KDFI 251953Z AUTO 25013G25KT 10SM BKN032 05/M02 A2997 RMK AO2 SLP153 T00501017
KDFI 251853Z AUTO 24013G25KT 10SM OVC034 05/M01 A2997 RMK AO2 PK WND 26027/1758 SLP153 T00501011
KDFI 251753Z AUTO 24014G25KT 10SM BKN033 04/M02 A2997 RMK AO2 PK WND 22026/1742 SLP152 T00441017 10050 20028 51025
KDFI 251653Z AUTO 25017G25KT 10SM OVC033 04/M02 A2995 RMK AO2 PK WND 24029/1632 SLP148 T00391017
KDFI 251618Z AUTO 23018G26KT 10SM BKN030 04/M02 A2993 RMK AO2 PK WND 22026/1618 T00391017
KDFI 251553Z AUTO 24014G28KT 10SM BKN026 OVC032 04/M01 A2993 RMK AO2 PK WND 23030/1531 SLP140 T00441011
KDFI 251453Z AUTO 25015G25KT 10SM BKN028 03/M01 A2990 RMK AO2 PK WND 22031/1436 SLP129 T00331006 53045
KDFI 251353Z AUTO 24015G25KT 10SM OVC023 03/M01 A2985 RMK AO2 PK WND 24028/1341 SLP112 T00331006
KDFI 251253Z AUTO 25007KT 10SM OVC022 03/01 A2980 RMK AO2 PK WND 24030/1208 SLP096 T00330006
KDFI 251236Z AUTO 25011G18KT 10SM BKN024 03/00 A2980 RMK AO2 PK WND 24030/1208 T00330000
KDFI 251153Z AUTO 25015G26KT 10SM SCT025 04/M01 A2976 RMK AO2 PK WND 25034/1100 SLP082 60004 70020 T00391006 10128 20039 51081
KDFI 251135Z AUTO 25017G27KT 10SM BKN024 06/02 A2975 RMK AO2 PK WND 25034/1100 T00560017
KDFI 251053Z AUTO 25016G27KT 10SM SCT026 BKN033 07/03 A2969 RMK AO2 PK WND 25036/1005 PRESRR SLP057 T00720033
KDFI 251027Z AUTO 25016G31KT 10SM FEW023 BKN031 09/04 A2965 RMK AO2 PK WND 25036/1005 PRESRR T00890044
KDFI 250953Z AUTO 26018G33KT 10SM BKN023 BKN049 10/06 A2960 RMK AO2 PK WND 25039/0941 RAE22 PRESRR SLP026 P0003 T01000061
KDFI 250937Z AUTO 25020G33KT 10SM FEW010 BKN024 OVC049 11/08 A2958 RMK AO2 PK WND 25033/0937 RAE22 PRESRR P0003 T01110078
KDFI 250925Z AUTO 26019G31KT 10SM SCT010 BKN036 OVC047 12/08 A2955 RMK AO2 PK WND 26031/0918 RAE22 P0003 T01170083
KDFI 250853Z AUTO 21015G23KT 6SM -RA BR BKN010 OVC016 12/11 A2951 RMK AO2 RAB16 CIG 008V013 SLP996 P0001 60001 T01220111 55016
KDFI 250850Z AUTO 20014G23KT 6SM -RA BR BKN012 OVC020 12/11 A2951 RMK AO2 RAB16 P0001
KDFI 250753Z AUTO 19007KT 7SM FEW010 BKN017 OVC024 10/09 A2953 RMK AO2 RAB09E37 SLP004 P0000 T01000089
KDFI 250744Z AUTO 17006KT 5SM BR FEW008 OVC017 09/08 A2954 RMK AO2 RAB09E37 P0000 T00890078
KDFI 250734Z AUTO 15004KT 2 1/2SM -RA BR SCT010 BKN016 OVC025 08/07 A2955 RMK AO2 RAB09 P0000 T00780067
KDFI 250732Z AUTO 14004KT 2SM -RA BR FEW008 BKN018 OVC033 08/06 A2955 RMK AO2 RAB09 P0000 T00780061
KDFI 250728Z AUTO 14003KT 2 1/2SM -RA BR FEW008 BKN014 OVC035 07/06 A2956 RMK AO2 RAB09 P0000 T00720061
KDFI 250723Z AUTO 00000KT 3SM -RA BR FEW004 BKN023 OVC040 07/06 A2956 RMK AO2 RAB09 P0000 T00720061
KDFI 250705Z AUTO 11004KT 6SM BR FEW003 SCT007 OVC040 07/06 A2956 RMK AO2 T00720061
KDFI 250653Z AUTO 10004KT 6SM BR BKN005 OVC009 07/06 A2956 RMK AO2 CIG 003V008 SLP013 T00720061
KDFI 250633Z AUTO 10005KT 6SM BR OVC004 07/06 A2957 RMK AO2 T00720061
KDFI 250553Z AUTO 11007KT 7SM OVC005 07/06 A2960 RMK AO2 SLP026 60014 T00720061 10072 20022 56078
KDFI 250453Z AUTO 10011KT 6SM BR OVC004 05/04 A2963 RMK AO2 RAE12 PRESFR SLP036 P0000 T00500039 400560022
KDFI 250353Z AUTO 10015G22KT 5SM -RA BR OVC004 03/02 A2969 RMK AO2 PRESFR SLP058 P0003 T00330022
KDFI 250320Z AUTO 08011KT 5SM -RA BR OVC004 03/02 A2980 RMK AO2 PRESFR P0001 T00280017
KDFI 250253Z AUTO 08010KT 5SM -RA BR OVC005 03/01 A2983 RMK AO2 SLP108 P0007 60011 T00280011 58042
KDFI 250236Z AUTO 08010KT 4SM -RA BR OVC005 02/01 A2985 RMK AO2 P0005 T00220011
KDFI 250153Z AUTO 08012KT 5SM -RA BR OVC008 03/01 A2988 RMK AO2 UPB03E08RAB08 SLP123 P0004 T00280011
KDFI 250109Z AUTO 08013G17KT 10SM -RA OVC009 03/01 A2992 RMK AO2 UPB03E08RAB08 P0000 T00280011
KDFI 250053Z AUTO 08011KT 10SM OVC010 03/01 A2993 RMK AO2 SLP142 T00280006
KDFI 242353Z AUTO 09014G19KT 10SM OVC011 03/01 A2996 RMK AO2 SLP150 T00330011 10050 20033 58018
KDFI 242253Z AUTO 08012KT 10SM OVC012 03/01 A3000 RMK AO2 SLP164 T00330011
KDFI 242153Z AUTO 09011KT 10SM OVC014 04/02 A3003 RMK AO2 SLP173 T00390017
KDFI 242053Z AUTO 07014KT 10SM OVC014 04/02 A3001 RMK AO2 SLP169 T00440017 56036
KDFI 241953Z AUTO 06011KT 10SM OVC011 04/02 A3005 RMK AO2 SLP180 T00440022
KDFI 241922Z AUTO 08012KT 10SM OVC010 04/02 A3007 RMK AO2 T00440022
KDFI 241901Z AUTO 06011G18KT 10SM OVC009 04/02 A3008 RMK AO2 CIG 008V013 T00440022
KDFI 241853Z AUTO 08013G18KT 10SM OVC010 04/03 A3007 RMK AO2 CIG 008V013 SLP188 T00440028
KDFI 241819Z AUTO 09014G19KT 10SM OVC011 04/02 A3010 RMK AO2 CIG 009V014 T00440022
KDFI 241800Z AUTO 08011KT 10SM BKN009 OVC013 04/03 A3012 RMK AO2 T00440028
KDFI 241753Z AUTO 08013KT 10SM OVC011 04/02 A3012 RMK AO2 RAE01 CIG 008V013 SLP205 P0000 60002 T00440022 10044 20028 58022
KDFI 241720Z AUTO 08010KT 10SM OVC009 03/02 A3016 RMK AO2 RAE01 P0000 T00330017
KDFI 241653Z AUTO 08010KT 8SM -RA OVC011 03/02 A3017 RMK AO2 CIG 008V014 SLP223 P0001 T00330017
KDFI 241553Z AUTO 08011KT 7SM -RA OVC010 03/01 A3018 RMK AO2 SLP226 P0001 T00330011
KDFI 241453Z AUTO 08008KT 7SM -RA OVC011 03/01 A3019 RMK AO2 UPB49E52RAB52 SLP227 P0000 60000 T00330011 50000
KDFI 241353Z AUTO 08007KT 7SM OVC014 03/01 A3020 RMK AO2 RAB27E38UPB38E51 SLP232 P0000 T00280011
KDFI 241253Z AUTO 07007KT 8SM OVC012 03/01 A3019 RMK AO2 RAE28UPB07E18 SLP229 P0000 T00280006
KDFI 241153Z AUTO 05008KT 10SM -RA OVC010 03/01 A3019 RMK AO2 UPB03E12RAB42 SLP227 P0000 60000 70022 T00280006 10050 20028 58015